sensor_id;sensor_type;location;lat;lon;timestamp;P1;durP1;ratioP1;P2;durP2;ratioP2
29824;SDS011;16713;52.916;12.834;2024-03-23T00:54:59;13.60;;;4.05;;
29824;SDS011;16713;52.916;12.834;2024-03-23T00:57:25;11.40;;;3.42;;
29824;SDS011;16713;52.916;12.834;2024-03-23T00:59:50;16.13;;;4.25;;
29824;SDS011;16713;52.916;12.834;2024-03-23T01:02:15;15.55;;;4.38;;
29824;SDS011;16713;52.916;12.834;2024-03-23T01:04:41;12.77;;;4.10;;
29824;SDS011;16713;52.916;12.834;2024-03-23T01:07:06;18.25;;;4.03;;
29824;SDS011;16713;52.916;12.834;2024-03-23T01:09:32;15.13;;;4.32;;
29824;SDS011;16713;52.916;12.834;2024-03-23T01:11:57;17.08;;;5.60;;
29824;SDS011;16713;52.916;12.834;2024-03-23T01:14:22;16.13;;;4.30;;
29824;SDS011;16713;52.916;12.834;2024-03-23T01:16:48;16.10;;;4.18;;
29824;SDS011;16713;52.916;12.834;2024-03-23T01:19:13;15.45;;;4.00;;
29824;SDS011;16713;52.916;12.834;2024-03-23T01:21:39;19.02;;;4.07;;
29824;SDS011;16713;52.916;12.834;2024-03-23T01:24:04;22.35;;;5.65;;
29824;SDS011;16713;52.916;12.834;2024-03-23T01:26:30;23.35;;;5.53;;
29824;SDS011;16713;52.916;12.834;2024-03-23T01:28:55;15.57;;;4.45;;
29824;SDS011;16713;52.916;12.834;2024-03-23T01:31:20;17.55;;;4.18;;
29824;SDS011;16713;52.916;12.834;2024-03-23T01:33:46;20.02;;;4.15;;
29824;SDS011;16713;52.916;12.834;2024-03-23T01:36:11;16.80;;;5.10;;
29824;SDS011;16713;52.916;12.834;2024-03-23T01:38:37;13.48;;;4.15;;
29824;SDS011;16713;52.916;12.834;2024-03-23T01:41:02;13.07;;;5.15;;
29824;SDS011;16713;52.916;12.834;2024-03-23T01:43:28;12.88;;;4.18;;
29824;SDS011;16713;52.916;12.834;2024-03-23T01:45:53;15.73;;;4.32;;
29824;SDS011;16713;52.916;12.834;2024-03-23T01:48:19;12.65;;;4.13;;
29824;SDS011;16713;52.916;12.834;2024-03-23T01:50:45;14.40;;;4.25;;
29824;SDS011;16713;52.916;12.834;2024-03-23T01:53:11;17.25;;;4.25;;
29824;SDS011;16713;52.916;12.834;2024-03-23T01:55:37;14.50;;;4.28;;
29824;SDS011;16713;52.916;12.834;2024-03-23T01:58:04;11.52;;;4.28;;
29824;SDS011;16713;52.916;12.834;2024-03-23T02:00:29;18.67;;;4.80;;
29824;SDS011;16713;52.916;12.834;2024-03-23T02:02:55;14.25;;;4.22;;
29824;SDS011;16713;52.916;12.834;2024-03-23T02:05:21;12.23;;;4.55;;
29824;SDS011;16713;52.916;12.834;2024-03-23T02:07:47;15.27;;;4.38;;
29824;SDS011;16713;52.916;12.834;2024-03-23T02:10:12;14.90;;;3.75;;
29824;SDS011;16713;52.916;12.834;2024-03-23T02:12:38;11.40;;;3.85;;
29824;SDS011;16713;52.916;12.834;2024-03-23T02:15:04;16.77;;;4.80;;
29824;SDS011;16713;52.916;12.834;2024-03-23T02:17:30;12.65;;;4.35;;
29824;SDS011;16713;52.916;12.834;2024-03-23T02:19:57;15.50;;;4.53;;
29824;SDS011;16713;52.916;12.834;2024-03-23T02:22:22;18.17;;;4.30;;
29824;SDS011;16713;52.916;12.834;2024-03-23T02:24:48;18.25;;;4.30;;
29824;SDS011;16713;52.916;12.834;2024-03-23T02:27:14;14.30;;;5.38;;
29824;SDS011;16713;52.916;12.834;2024-03-23T02:29:39;15.43;;;3.63;;
29824;SDS011;16713;52.916;12.834;2024-03-23T02:32:05;18.30;;;5.63;;
29824;SDS011;16713;52.916;12.834;2024-03-23T02:34:31;15.90;;;3.97;;
29824;SDS011;16713;52.916;12.834;2024-03-23T02:36:56;14.85;;;4.10;;
29824;SDS011;16713;52.916;12.834;2024-03-23T02:39:22;20.65;;;6.10;;
29824;SDS011;16713;52.916;12.834;2024-03-23T02:41:47;19.65;;;4.97;;
29824;SDS011;16713;52.916;12.834;2024-03-23T02:44:13;19.10;;;4.53;;
29824;SDS011;16713;52.916;12.834;2024-03-23T02:46:39;16.58;;;5.72;;
29824;SDS011;16713;52.916;12.834;2024-03-23T02:49:04;19.55;;;5.30;;
29824;SDS011;16713;52.916;12.834;2024-03-23T02:51:30;14.75;;;4.50;;
29824;SDS011;16713;52.916;12.834;2024-03-23T02:53:56;14.45;;;3.78;;
29824;SDS011;16713;52.916;12.834;2024-03-23T02:56:21;17.45;;;4.05;;
29824;SDS011;16713;52.916;12.834;2024-03-23T02:58:47;10.13;;;3.45;;
29824;SDS011;16713;52.916;12.834;2024-03-23T03:01:12;19.13;;;4.97;;
29824;SDS011;16713;52.916;12.834;2024-03-23T03:03:37;19.25;;;5.32;;
29824;SDS011;16713;52.916;12.834;2024-03-23T03:06:03;18.77;;;4.00;;
29824;SDS011;16713;52.916;12.834;2024-03-23T03:08:29;18.23;;;4.35;;
29824;SDS011;16713;52.916;12.834;2024-03-23T03:10:54;12.05;;;3.83;;
29824;SDS011;16713;52.916;12.834;2024-03-23T03:13:20;11.55;;;4.82;;
29824;SDS011;16713;52.916;12.834;2024-03-23T03:15:45;15.85;;;4.97;;
29824;SDS011;16713;52.916;12.834;2024-03-23T03:18:10;15.20;;;4.90;;
29824;SDS011;16713;52.916;12.834;2024-03-23T03:20:39;12.02;;;3.95;;
29824;SDS011;16713;52.916;12.834;2024-03-23T03:23:05;15.50;;;4.13;;
29824;SDS011;16713;52.916;12.834;2024-03-23T03:25:31;11.10;;;4.03;;
29824;SDS011;16713;52.916;12.834;2024-03-23T03:27:56;16.73;;;3.83;;
29824;SDS011;16713;52.916;12.834;2024-03-23T03:30:22;13.23;;;4.30;;
29824;SDS011;16713;52.916;12.834;2024-03-23T03:32:47;19.95;;;4.20;;
29824;SDS011;16713;52.916;12.834;2024-03-23T03:35:13;22.33;;;3.80;;
29824;SDS011;16713;52.916;12.834;2024-03-23T03:37:38;14.93;;;3.72;;
29824;SDS011;16713;52.916;12.834;2024-03-23T03:40:04;12.73;;;4.20;;
29824;SDS011;16713;52.916;12.834;2024-03-23T03:42:29;16.63;;;3.85;;
29824;SDS011;16713;52.916;12.834;2024-03-23T03:44:55;17.02;;;4.13;;
29824;SDS011;16713;52.916;12.834;2024-03-23T03:47:20;11.93;;;3.72;;
29824;SDS011;16713;52.916;12.834;2024-03-23T03:49:47;15.50;;;3.78;;
29824;SDS011;16713;52.916;12.834;2024-03-23T03:52:12;15.48;;;4.50;;
29824;SDS011;16713;52.916;12.834;2024-03-23T03:54:38;14.68;;;4.38;;
29824;SDS011;16713;52.916;12.834;2024-03-23T03:57:03;15.07;;;4.28;;
29824;SDS011;16713;52.916;12.834;2024-03-23T03:59:29;14.85;;;5.90;;
29824;SDS011;16713;52.916;12.834;2024-03-23T04:01:54;18.23;;;4.28;;
29824;SDS011;16713;52.916;12.834;2024-03-23T04:04:20;16.25;;;4.28;;
29824;SDS011;16713;52.916;12.834;2024-03-23T04:06:45;18.27;;;5.18;;
29824;SDS011;16713;52.916;12.834;2024-03-23T04:09:11;12.13;;;3.55;;
29824;SDS011;16713;52.916;12.834;2024-03-23T04:11:36;16.15;;;4.63;;
29824;SDS011;16713;52.916;12.834;2024-03-23T04:14:02;19.52;;;4.70;;
29824;SDS011;16713;52.916;12.834;2024-03-23T04:16:27;14.52;;;4.55;;
29824;SDS011;16713;52.916;12.834;2024-03-23T04:18:53;12.93;;;5.10;;
29824;SDS011;16713;52.916;12.834;2024-03-23T04:21:19;10.60;;;4.05;;
29824;SDS011;16713;52.916;12.834;2024-03-23T04:23:45;11.20;;;3.78;;
29824;SDS011;16713;52.916;12.834;2024-03-23T04:26:11;13.13;;;5.05;;
29824;SDS011;16713;52.916;12.834;2024-03-23T04:28:36;12.13;;;4.18;;
29824;SDS011;16713;52.916;12.834;2024-03-23T04:31:05;20.70;;;5.50;;
29824;SDS011;16713;52.916;12.834;2024-03-23T04:33:30;20.50;;;6.15;;
29824;SDS011;16713;52.916;12.834;2024-03-23T04:35:56;18.33;;;6.00;;
29824;SDS011;16713;52.916;12.834;2024-03-23T04:38:22;15.27;;;3.95;;
29824;SDS011;16713;52.916;12.834;2024-03-23T04:40:55;19.05;;;4.25;;
29824;SDS011;16713;52.916;12.834;2024-03-23T04:43:21;20.02;;;5.63;;
29824;SDS011;16713;52.916;12.834;2024-03-23T04:45:46;16.42;;;4.57;;
29824;SDS011;16713;52.916;12.834;2024-03-23T04:48:12;20.02;;;6.30;;
29824;SDS011;16713;52.916;12.834;2024-03-23T04:50:38;17.38;;;4.70;;
29824;SDS011;16713;52.916;12.834;2024-03-23T04:53:03;21.00;;;4.63;;
29824;SDS011;16713;52.916;12.834;2024-03-23T04:55:29;17.30;;;5.70;;
29824;SDS011;16713;52.916;12.834;2024-03-23T04:57:54;12.07;;;4.63;;
29824;SDS011;16713;52.916;12.834;2024-03-23T05:00:20;14.07;;;4.05;;
29824;SDS011;16713;52.916;12.834;2024-03-23T05:02:45;20.00;;;5.30;;
29824;SDS011;16713;52.916;12.834;2024-03-23T05:05:11;16.67;;;5.20;;
29824;SDS011;16713;52.916;12.834;2024-03-23T05:07:37;18.40;;;4.95;;
29824;SDS011;16713;52.916;12.834;2024-03-23T05:10:03;19.92;;;5.35;;
29824;SDS011;16713;52.916;12.834;2024-03-23T05:12:28;15.38;;;4.25;;
29824;SDS011;16713;52.916;12.834;2024-03-23T05:14:54;15.45;;;3.95;;
29824;SDS011;16713;52.916;12.834;2024-03-23T05:17:19;14.55;;;4.07;;
29824;SDS011;16713;52.916;12.834;2024-03-23T05:19:44;21.63;;;5.43;;
29824;SDS011;16713;52.916;12.834;2024-03-23T05:22:10;17.25;;;4.82;;
29824;SDS011;16713;52.916;12.834;2024-03-23T05:24:35;15.95;;;4.20;;
29824;SDS011;16713;52.916;12.834;2024-03-23T05:27:01;15.52;;;4.18;;
29824;SDS011;16713;52.916;12.834;2024-03-23T05:29:26;12.50;;;3.70;;
29824;SDS011;16713;52.916;12.834;2024-03-23T05:31:52;17.30;;;3.25;;
29824;SDS011;16713;52.916;12.834;2024-03-23T05:34:17;8.63;;;2.97;;
29824;SDS011;16713;52.916;12.834;2024-03-23T05:36:43;10.73;;;2.88;;
29824;SDS011;16713;52.916;12.834;2024-03-23T05:39:08;13.85;;;2.75;;
29824;SDS011;16713;52.916;12.834;2024-03-23T05:41:34;17.58;;;2.75;;
29824;SDS011;16713;52.916;12.834;2024-03-23T05:44:01;6.18;;;2.17;;
29824;SDS011;16713;52.916;12.834;2024-03-23T05:46:27;9.25;;;2.38;;
29824;SDS011;16713;52.916;12.834;2024-03-23T05:48:53;11.10;;;2.28;;
29824;SDS011;16713;52.916;12.834;2024-03-23T05:51:19;7.05;;;1.73;;
29824;SDS011;16713;52.916;12.834;2024-03-23T05:53:44;6.50;;;2.13;;
29824;SDS011;16713;52.916;12.834;2024-03-23T05:56:10;9.93;;;2.38;;
29824;SDS011;16713;52.916;12.834;2024-03-23T05:58:35;6.47;;;2.30;;
29824;SDS011;16713;52.916;12.834;2024-03-23T06:01:01;8.48;;;2.28;;
29824;SDS011;16713;52.916;12.834;2024-03-23T06:03:27;6.60;;;2.25;;
29824;SDS011;16713;52.916;12.834;2024-03-23T06:05:53;7.00;;;3.15;;
29824;SDS011;16713;52.916;12.834;2024-03-23T06:08:19;12.20;;;2.78;;
29824;SDS011;16713;52.916;12.834;2024-03-23T06:10:48;19.88;;;3.95;;
29824;SDS011;16713;52.916;12.834;2024-03-23T06:13:13;4.28;;;1.88;;
29824;SDS011;16713;52.916;12.834;2024-03-23T06:15:39;14.80;;;2.97;;
29824;SDS011;16713;52.916;12.834;2024-03-23T06:18:05;11.38;;;3.00;;
29824;SDS011;16713;52.916;12.834;2024-03-23T06:20:32;9.20;;;2.35;;
29824;SDS011;16713;52.916;12.834;2024-03-23T06:22:58;6.45;;;1.95;;
29824;SDS011;16713;52.916;12.834;2024-03-23T06:25:23;7.85;;;2.47;;
29824;SDS011;16713;52.916;12.834;2024-03-23T06:27:49;11.85;;;2.72;;
29824;SDS011;16713;52.916;12.834;2024-03-23T06:30:14;10.60;;;2.67;;
29824;SDS011;16713;52.916;12.834;2024-03-23T06:32:40;11.68;;;3.15;;
29824;SDS011;16713;52.916;12.834;2024-03-23T06:35:05;10.75;;;2.83;;
29824;SDS011;16713;52.916;12.834;2024-03-23T06:37:34;7.20;;;2.00;;
29824;SDS011;16713;52.916;12.834;2024-03-23T06:39:59;9.80;;;2.33;;
29824;SDS011;16713;52.916;12.834;2024-03-23T06:42:25;14.27;;;2.70;;
29824;SDS011;16713;52.916;12.834;2024-03-23T06:44:50;15.68;;;3.45;;
29824;SDS011;16713;52.916;12.834;2024-03-23T06:47:16;12.23;;;3.47;;
29824;SDS011;16713;52.916;12.834;2024-03-23T06:49:42;9.60;;;2.00;;
29824;SDS011;16713;52.916;12.834;2024-03-23T06:52:07;17.25;;;2.83;;
29824;SDS011;16713;52.916;12.834;2024-03-23T06:54:33;9.40;;;2.38;;
29824;SDS011;16713;52.916;12.834;2024-03-23T06:56:58;13.98;;;3.20;;
29824;SDS011;16713;52.916;12.834;2024-03-23T06:59:23;7.25;;;2.25;;
29824;SDS011;16713;52.916;12.834;2024-03-23T07:01:49;9.48;;;2.85;;
29824;SDS011;16713;52.916;12.834;2024-03-23T07:04:15;9.30;;;2.38;;
29824;SDS011;16713;52.916;12.834;2024-03-23T07:06:44;10.40;;;3.08;;
29824;SDS011;16713;52.916;12.834;2024-03-23T07:09:10;10.77;;;3.15;;
29824;SDS011;16713;52.916;12.834;2024-03-23T07:11:36;10.10;;;2.15;;
29824;SDS011;16713;52.916;12.834;2024-03-23T07:14:02;12.98;;;2.25;;
29824;SDS011;16713;52.916;12.834;2024-03-23T07:16:28;7.45;;;2.15;;
29824;SDS011;16713;52.916;12.834;2024-03-23T07:18:54;6.00;;;2.10;;
29824;SDS011;16713;52.916;12.834;2024-03-23T07:21:19;8.40;;;2.20;;
29824;SDS011;16713;52.916;12.834;2024-03-23T07:23:45;9.05;;;1.95;;
29824;SDS011;16713;52.916;12.834;2024-03-23T07:26:10;7.10;;;2.65;;
29824;SDS011;16713;52.916;12.834;2024-03-23T07:28:36;6.80;;;1.95;;
29824;SDS011;16713;52.916;12.834;2024-03-23T07:31:03;9.55;;;2.38;;
29824;SDS011;16713;52.916;12.834;2024-03-23T07:33:36;11.85;;;2.50;;
29824;SDS011;16713;52.916;12.834;2024-03-23T07:36:03;10.65;;;2.22;;
29824;SDS011;16713;52.916;12.834;2024-03-23T07:38:29;13.43;;;3.03;;
29824;SDS011;16713;52.916;12.834;2024-03-23T07:41:37;10.55;;;2.22;;
29824;SDS011;16713;52.916;12.834;2024-03-23T07:43:44;6.68;;;2.45;;
29824;SDS011;16713;52.916;12.834;2024-03-23T07:46:10;5.72;;;2.38;;
29824;SDS011;16713;52.916;12.834;2024-03-23T07:48:37;12.77;;;3.17;;
29824;SDS011;16713;52.916;12.834;2024-03-23T07:51:05;7.32;;;2.58;;
29824;SDS011;16713;52.916;12.834;2024-03-23T07:53:31;8.05;;;2.42;;
29824;SDS011;16713;52.916;12.834;2024-03-23T07:55:58;10.57;;;2.97;;
29824;SDS011;16713;52.916;12.834;2024-03-23T07:58:29;9.77;;;2.40;;
29824;SDS011;16713;52.916;12.834;2024-03-23T08:00:55;12.65;;;3.25;;
29824;SDS011;16713;52.916;12.834;2024-03-23T08:03:21;13.20;;;5.43;;
29824;SDS011;16713;52.916;12.834;2024-03-23T08:05:47;15.48;;;3.83;;
29824;SDS011;16713;52.916;12.834;2024-03-23T08:08:13;11.80;;;4.15;;
29824;SDS011;16713;52.916;12.834;2024-03-23T08:10:51;12.60;;;3.50;;
29824;SDS011;16713;52.916;12.834;2024-03-23T08:13:19;12.32;;;3.08;;
29824;SDS011;16713;52.916;12.834;2024-03-23T08:15:44;9.80;;;2.92;;
29824;SDS011;16713;52.916;12.834;2024-03-23T08:18:12;10.45;;;3.92;;
29824;SDS011;16713;52.916;12.834;2024-03-23T08:20:39;13.73;;;3.03;;
29824;SDS011;16713;52.916;12.834;2024-03-23T08:23:07;13.63;;;3.50;;
29824;SDS011;16713;52.916;12.834;2024-03-23T08:25:34;7.18;;;2.65;;
29824;SDS011;16713;52.916;12.834;2024-03-23T08:27:59;13.38;;;3.30;;
29824;SDS011;16713;52.916;12.834;2024-03-23T08:30:25;14.80;;;3.58;;
29824;SDS011;16713;52.916;12.834;2024-03-23T08:32:50;11.57;;;3.00;;
29824;SDS011;16713;52.916;12.834;2024-03-23T08:35:16;8.98;;;2.75;;
29824;SDS011;16713;52.916;12.834;2024-03-23T08:37:41;12.80;;;4.55;;
29824;SDS011;16713;52.916;12.834;2024-03-23T08:40:07;13.95;;;3.08;;
29824;SDS011;16713;52.916;12.834;2024-03-23T08:42:33;15.90;;;2.53;;
29824;SDS011;16713;52.916;12.834;2024-03-23T08:44:59;7.03;;;3.13;;
29824;SDS011;16713;52.916;12.834;2024-03-23T08:47:25;9.70;;;3.05;;
29824;SDS011;16713;52.916;12.834;2024-03-23T08:49:50;9.07;;;2.67;;
29824;SDS011;16713;52.916;12.834;2024-03-23T08:52:16;12.32;;;3.80;;
29824;SDS011;16713;52.916;12.834;2024-03-23T08:54:41;12.25;;;2.72;;
29824;SDS011;16713;52.916;12.834;2024-03-23T08:57:07;6.82;;;2.53;;
29824;SDS011;16713;52.916;12.834;2024-03-23T08:59:34;8.15;;;2.42;;
29824;SDS011;16713;52.916;12.834;2024-03-23T09:01:59;13.77;;;3.10;;
29824;SDS011;16713;52.916;12.834;2024-03-23T09:04:25;12.43;;;2.42;;
29824;SDS011;16713;52.916;12.834;2024-03-23T09:06:50;13.23;;;2.33;;
29824;SDS011;16713;52.916;12.834;2024-03-23T09:09:17;17.55;;;3.28;;
29824;SDS011;16713;52.916;12.834;2024-03-23T09:11:42;13.93;;;4.28;;
29824;SDS011;16713;52.916;12.834;2024-03-23T09:14:07;16.48;;;4.18;;
29824;SDS011;16713;52.916;12.834;2024-03-23T09:16:34;17.70;;;3.65;;
29824;SDS011;16713;52.916;12.834;2024-03-23T09:19:00;13.90;;;3.20;;
29824;SDS011;16713;52.916;12.834;2024-03-23T09:21:26;13.27;;;3.17;;
29824;SDS011;16713;52.916;12.834;2024-03-23T09:23:51;17.95;;;3.20;;
29824;SDS011;16713;52.916;12.834;2024-03-23T09:26:16;14.65;;;3.50;;
29824;SDS011;16713;52.916;12.834;2024-03-23T09:28:42;14.73;;;4.05;;
29824;SDS011;16713;52.916;12.834;2024-03-23T09:31:08;20.13;;;3.70;;
29824;SDS011;16713;52.916;12.834;2024-03-23T09:33:35;13.15;;;4.10;;
29824;SDS011;16713;52.916;12.834;2024-03-23T09:36:04;17.58;;;3.20;;
29824;SDS011;16713;52.916;12.834;2024-03-23T09:38:30;13.82;;;4.32;;
29824;SDS011;16713;52.916;12.834;2024-03-23T09:40:56;15.90;;;4.40;;
29824;SDS011;16713;52.916;12.834;2024-03-23T09:43:23;14.90;;;4.50;;
29824;SDS011;16713;52.916;12.834;2024-03-23T09:45:48;18.05;;;4.57;;
29824;SDS011;16713;52.916;12.834;2024-03-23T09:48:14;22.73;;;5.50;;
29824;SDS011;16713;52.916;12.834;2024-03-23T09:50:41;28.88;;;7.05;;
29824;SDS011;16713;52.916;12.834;2024-03-23T09:53:08;16.45;;;5.03;;
29824;SDS011;16713;52.916;12.834;2024-03-23T09:55:35;26.77;;;6.13;;
29824;SDS011;16713;52.916;12.834;2024-03-23T09:58:03;30.40;;;7.43;;
29824;SDS011;16713;52.916;12.834;2024-03-23T10:00:33;28.45;;;6.97;;
29824;SDS011;16713;52.916;12.834;2024-03-23T10:03:00;25.92;;;6.57;;
29824;SDS011;16713;52.916;12.834;2024-03-23T10:05:28;26.65;;;7.03;;
29824;SDS011;16713;52.916;12.834;2024-03-23T10:07:54;25.17;;;7.40;;
29824;SDS011;16713;52.916;12.834;2024-03-23T10:10:20;22.50;;;6.20;;
29824;SDS011;16713;52.916;12.834;2024-03-23T10:12:48;18.13;;;5.70;;
29824;SDS011;16713;52.916;12.834;2024-03-23T10:15:19;27.08;;;6.80;;
29824;SDS011;16713;52.916;12.834;2024-03-23T10:17:46;17.38;;;7.50;;
29824;SDS011;16713;52.916;12.834;2024-03-23T10:20:12;32.58;;;6.93;;
29824;SDS011;16713;52.916;12.834;2024-03-23T10:22:38;21.23;;;6.43;;
29824;SDS011;16713;52.916;12.834;2024-03-23T10:25:07;17.08;;;6.47;;
29824;SDS011;16713;52.916;12.834;2024-03-23T10:27:33;16.25;;;6.10;;
29824;SDS011;16713;52.916;12.834;2024-03-23T10:30:07;22.42;;;5.88;;
29824;SDS011;16713;52.916;12.834;2024-03-23T10:32:37;21.55;;;4.63;;
29824;SDS011;16713;52.916;12.834;2024-03-23T10:35:19;19.10;;;5.93;;
29824;SDS011;16713;52.916;12.834;2024-03-23T10:37:48;16.60;;;4.97;;
29824;SDS011;16713;52.916;12.834;2024-03-23T10:40:16;33.25;;;6.72;;
29824;SDS011;16713;52.916;12.834;2024-03-23T10:42:43;26.75;;;4.50;;
29824;SDS011;16713;52.916;12.834;2024-03-23T10:45:10;21.70;;;5.05;;
29824;SDS011;16713;52.916;12.834;2024-03-23T10:47:36;17.20;;;5.28;;
29824;SDS011;16713;52.916;12.834;2024-03-23T10:50:05;22.17;;;5.53;;
29824;SDS011;16713;52.916;12.834;2024-03-23T10:52:34;18.38;;;5.28;;
29824;SDS011;16713;52.916;12.834;2024-03-23T10:55:01;28.15;;;5.90;;
29824;SDS011;16713;52.916;12.834;2024-03-23T11:00:16;14.05;;;3.75;;
29824;SDS011;16713;52.916;12.834;2024-03-23T11:02:42;17.45;;;6.70;;
29824;SDS011;16713;52.916;12.834;2024-03-23T11:05:27;16.92;;;4.55;;
29824;SDS011;16713;52.916;12.834;2024-03-23T11:07:54;16.25;;;5.30;;
29824;SDS011;16713;52.916;12.834;2024-03-23T11:10:29;24.10;;;6.10;;
29824;SDS011;16713;52.916;12.834;2024-03-23T11:12:56;16.98;;;6.35;;
29824;SDS011;16713;52.916;12.834;2024-03-23T11:15:22;19.80;;;4.63;;
29824;SDS011;16713;52.916;12.834;2024-03-23T11:18:01;21.00;;;4.28;;
29824;SDS011;16713;52.916;12.834;2024-03-23T11:20:33;19.80;;;4.25;;
29824;SDS011;16713;52.916;12.834;2024-03-23T11:22:59;20.55;;;5.38;;
29824;SDS011;16713;52.916;12.834;2024-03-23T11:25:26;28.23;;;5.97;;
29824;SDS011;16713;52.916;12.834;2024-03-23T11:27:53;16.73;;;4.38;;
29824;SDS011;16713;52.916;12.834;2024-03-23T11:32:50;17.77;;;3.88;;
29824;SDS011;16713;52.916;12.834;2024-03-23T11:35:26;16.73;;;3.50;;
29824;SDS011;16713;52.916;12.834;2024-03-23T11:40:43;16.58;;;3.50;;
29824;SDS011;16713;52.916;12.834;2024-03-23T11:43:12;14.35;;;4.10;;
29824;SDS011;16713;52.916;12.834;2024-03-23T11:45:39;14.00;;;4.25;;
29824;SDS011;16713;52.916;12.834;2024-03-23T11:50:37;18.25;;;3.35;;
29824;SDS011;16713;52.916;12.834;2024-03-23T11:58:07;8.93;;;3.08;;
29824;SDS011;16713;52.916;12.834;2024-03-23T12:00:34;19.70;;;5.75;;
29824;SDS011;16713;52.916;12.834;2024-03-23T12:03:00;16.95;;;3.92;;
29824;SDS011;16713;52.916;12.834;2024-03-23T12:05:27;13.43;;;3.65;;
29824;SDS011;16713;52.916;12.834;2024-03-23T12:07:52;18.13;;;3.13;;
29824;SDS011;16713;52.916;12.834;2024-03-23T12:10:21;19.92;;;3.80;;
29824;SDS011;16713;52.916;12.834;2024-03-23T12:12:58;21.58;;;3.10;;
29824;SDS011;16713;52.916;12.834;2024-03-23T12:15:27;17.92;;;3.58;;
29824;SDS011;16713;52.916;12.834;2024-03-23T12:18:05;15.88;;;3.47;;
29824;SDS011;16713;52.916;12.834;2024-03-23T12:20:32;15.13;;;3.20;;
29824;SDS011;16713;52.916;12.834;2024-03-23T12:23:05;13.80;;;3.15;;
29824;SDS011;16713;52.916;12.834;2024-03-23T12:25:31;18.17;;;3.30;;
29824;SDS011;16713;52.916;12.834;2024-03-23T12:27:58;15.15;;;3.17;;
29824;SDS011;16713;52.916;12.834;2024-03-23T12:30:24;14.25;;;3.42;;
29824;SDS011;16713;52.916;12.834;2024-03-23T12:32:50;17.63;;;3.30;;
29824;SDS011;16713;52.916;12.834;2024-03-23T12:35:15;11.10;;;3.28;;
29824;SDS011;16713;52.916;12.834;2024-03-23T12:37:40;14.70;;;2.97;;
29824;SDS011;16713;52.916;12.834;2024-03-23T12:40:06;15.00;;;2.55;;
29824;SDS011;16713;52.916;12.834;2024-03-23T12:42:33;12.25;;;3.10;;
29824;SDS011;16713;52.916;12.834;2024-03-23T12:44:58;13.20;;;3.03;;
29824;SDS011;16713;52.916;12.834;2024-03-23T12:47:23;13.73;;;3.22;;
29824;SDS011;16713;52.916;12.834;2024-03-23T12:49:49;21.95;;;3.17;;
29824;SDS011;16713;52.916;12.834;2024-03-23T12:52:15;20.17;;;3.60;;
29824;SDS011;16713;52.916;12.834;2024-03-23T12:54:40;6.72;;;2.28;;
29824;SDS011;16713;52.916;12.834;2024-03-23T12:57:05;6.53;;;1.63;;
29824;SDS011;16713;52.916;12.834;2024-03-23T12:59:31;3.88;;;1.50;;
29824;SDS011;16713;52.916;12.834;2024-03-23T13:01:57;5.05;;;1.50;;
29824;SDS011;16713;52.916;12.834;2024-03-23T13:04:23;5.00;;;1.35;;
29824;SDS011;16713;52.916;12.834;2024-03-23T13:06:48;10.73;;;1.73;;
29824;SDS011;16713;52.916;12.834;2024-03-23T13:09:13;3.63;;;1.40;;
29824;SDS011;16713;52.916;12.834;2024-03-23T13:11:39;5.95;;;2.30;;
29824;SDS011;16713;52.916;12.834;2024-03-23T13:14:04;4.75;;;1.42;;
29824;SDS011;16713;52.916;12.834;2024-03-23T13:16:30;7.10;;;1.52;;
29824;SDS011;16713;52.916;12.834;2024-03-23T13:18:56;7.28;;;1.90;;
29824;SDS011;16713;52.916;12.834;2024-03-23T13:21:21;3.58;;;2.13;;
29824;SDS011;16713;52.916;12.834;2024-03-23T13:23:47;4.32;;;1.38;;
29824;SDS011;16713;52.916;12.834;2024-03-23T13:26:14;7.57;;;1.60;;
29824;SDS011;16713;52.916;12.834;2024-03-23T13:28:40;6.00;;;1.77;;
29824;SDS011;16713;52.916;12.834;2024-03-23T13:31:06;7.47;;;1.77;;
29824;SDS011;16713;52.916;12.834;2024-03-23T13:33:33;6.70;;;2.15;;
29824;SDS011;16713;52.916;12.834;2024-03-23T13:35:59;1.95;;;1.25;;
29824;SDS011;16713;52.916;12.834;2024-03-23T13:38:25;8.80;;;2.05;;
29824;SDS011;16713;52.916;12.834;2024-03-23T13:41:00;6.03;;;1.75;;
29824;SDS011;16713;52.916;12.834;2024-03-23T13:43:27;5.25;;;1.83;;
29824;SDS011;16713;52.916;12.834;2024-03-23T13:45:53;10.13;;;1.52;;
29824;SDS011;16713;52.916;12.834;2024-03-23T13:48:20;9.80;;;1.55;;
29824;SDS011;16713;52.916;12.834;2024-03-23T13:50:46;8.40;;;1.77;;
29824;SDS011;16713;52.916;12.834;2024-03-23T13:53:15;12.25;;;1.73;;
29824;SDS011;16713;52.916;12.834;2024-03-23T13:55:47;13.02;;;3.67;;
29824;SDS011;16713;52.916;12.834;2024-03-23T13:58:14;12.82;;;2.00;;
29824;SDS011;16713;52.916;12.834;2024-03-23T14:00:39;7.03;;;1.90;;
29824;SDS011;16713;52.916;12.834;2024-03-23T14:03:05;6.15;;;2.30;;
29824;SDS011;16713;52.916;12.834;2024-03-23T14:05:30;9.00;;;2.88;;
29824;SDS011;16713;52.916;12.834;2024-03-23T14:07:56;5.93;;;2.00;;
29824;SDS011;16713;52.916;12.834;2024-03-23T14:10:21;8.52;;;3.38;;
29824;SDS011;16713;52.916;12.834;2024-03-23T14:12:47;13.38;;;2.70;;
29824;SDS011;16713;52.916;12.834;2024-03-23T14:15:12;7.50;;;2.58;;
29824;SDS011;16713;52.916;12.834;2024-03-23T14:17:38;15.50;;;3.53;;
29824;SDS011;16713;52.916;12.834;2024-03-23T14:20:04;10.55;;;2.78;;
29824;SDS011;16713;52.916;12.834;2024-03-23T14:22:30;13.65;;;3.45;;
29824;SDS011;16713;52.916;12.834;2024-03-23T14:24:57;9.10;;;2.53;;
29824;SDS011;16713;52.916;12.834;2024-03-23T14:27:23;11.45;;;2.97;;
29824;SDS011;16713;52.916;12.834;2024-03-23T14:29:49;7.75;;;2.50;;
29824;SDS011;16713;52.916;12.834;2024-03-23T14:32:15;15.02;;;2.65;;
29824;SDS011;16713;52.916;12.834;2024-03-23T14:34:41;8.95;;;2.25;;
29824;SDS011;16713;52.916;12.834;2024-03-23T14:37:06;12.80;;;2.53;;
29824;SDS011;16713;52.916;12.834;2024-03-23T14:39:32;12.30;;;3.35;;
29824;SDS011;16713;52.916;12.834;2024-03-23T14:42:00;8.15;;;2.17;;
29824;SDS011;16713;52.916;12.834;2024-03-23T14:44:27;6.65;;;2.60;;
29824;SDS011;16713;52.916;12.834;2024-03-23T14:46:53;10.52;;;2.10;;
29824;SDS011;16713;52.916;12.834;2024-03-23T14:49:20;8.30;;;2.30;;
29824;SDS011;16713;52.916;12.834;2024-03-23T14:51:46;9.65;;;2.05;;
29824;SDS011;16713;52.916;12.834;2024-03-23T14:54:11;7.88;;;2.50;;
29824;SDS011;16713;52.916;12.834;2024-03-23T14:56:38;9.20;;;2.38;;
29824;SDS011;16713;52.916;12.834;2024-03-23T14:59:04;8.50;;;2.42;;
29824;SDS011;16713;52.916;12.834;2024-03-23T15:01:29;7.63;;;1.80;;
29824;SDS011;16713;52.916;12.834;2024-03-23T15:03:55;12.80;;;2.17;;
29824;SDS011;16713;52.916;12.834;2024-03-23T15:06:20;8.85;;;1.77;;
29824;SDS011;16713;52.916;12.834;2024-03-23T15:08:46;4.82;;;1.85;;
29824;SDS011;16713;52.916;12.834;2024-03-23T15:11:11;6.40;;;2.55;;
29824;SDS011;16713;52.916;12.834;2024-03-23T15:13:37;11.68;;;3.17;;
29824;SDS011;16713;52.916;12.834;2024-03-23T15:16:03;9.70;;;2.70;;
29824;SDS011;16713;52.916;12.834;2024-03-23T15:18:31;12.30;;;3.72;;
29824;SDS011;16713;52.916;12.834;2024-03-23T15:20:58;7.25;;;1.83;;
29824;SDS011;16713;52.916;12.834;2024-03-23T15:23:28;5.95;;;2.70;;
29824;SDS011;16713;52.916;12.834;2024-03-23T15:25:54;7.00;;;1.88;;
29824;SDS011;16713;52.916;12.834;2024-03-23T15:28:21;7.07;;;1.70;;
29824;SDS011;16713;52.916;12.834;2024-03-23T15:30:48;6.03;;;1.35;;